Time;durP1;ratioP1;P1;durP2;ratioP2;P2;SDS_P1;SDS_P2;PMS_P1;PMS_P2;Temp;Humidity;BMP_temperature;BMP_pressure;BME280_temperature;BME280_humidity;BME280_pressure;Samples;Min_cycle;Max_cycle;Signal;HPM_P1;HPM_P2
2022/05/02 00:02:06;;;;;;;3.83;1.85;;;6.80;99.90;;;;;;4991507;28;20041;-75
2022/05/02 00:04:32;;;;;;;4.75;2.67;;;6.70;99.90;;;;;;4991785;28;20425;-75
2022/05/02 00:06:57;;;;;;;4.18;2.35;;;6.70;99.90;;;;;;4991792;28;20065;-75
2022/05/02 00:09:23;;;;;;;5.07;1.77;;;6.70;99.90;;;;;;4991205;28;20042;-74
2022/05/02 00:11:48;;;;;;;4.25;2.35;;;6.60;99.90;;;;;;4991856;28;20031;-74
2022/05/02 00:14:14;;;;;;;5.63;2.15;;;6.60;99.90;;;;;;5058593;28;20035;-75
2022/05/02 00:16:39;;;;;;;3.83;2.25;;;6.60;99.90;;;;;;4991279;28;20079;-75
2022/05/02 00:19:05;;;;;;;5.00;1.73;;;6.60;99.90;;;;;;4991595;28;20040;-75
2022/05/02 00:21:31;;;;;;;9.05;2.72;;;6.60;99.90;;;;;;5058247;28;20062;-75
2022/05/02 00:23:56;;;;;;;4.00;2.28;;;6.50;99.90;;;;;;4991202;28;20030;-75
2022/05/02 00:26:22;;;;;;;6.25;2.15;;;6.50;99.90;;;;;;4991513;28;20031;-74
2022/05/02 00:28:47;;;;;;;5.93;2.88;;;6.50;99.90;;;;;;4991036;28;20083;-74
2022/05/02 00:31:13;;;;;;;6.45;2.38;;;6.50;99.90;;;;;;4990994;28;20098;-74
2022/05/02 00:33:38;;;;;;;6.90;2.80;;;6.50;99.90;;;;;;4990826;28;20115;-74
2022/05/02 00:36:04;;;;;;;6.15;3.17;;;6.50;99.90;;;;;;4994176;28;20180;-74
2022/05/02 00:38:30;;;;;;;5.93;2.78;;;6.50;99.90;;;;;;5061706;28;20035;-74
2022/05/02 00:40:57;;;;;;;4.60;2.40;;;6.40;99.90;;;;;;5062146;28;20498;-74
2022/05/02 00:43:23;;;;;;;4.70;2.63;;;6.40;99.90;;;;;;4994443;28;20038;-74
2022/05/02 00:45:49;;;;;;;5.70;2.75;;;6.30;99.90;;;;;;4994583;28;20044;-74
2022/05/02 00:48:15;;;;;;;5.32;2.53;;;6.30;99.90;;;;;;4994164;28;20117;-74
2022/05/02 00:50:44;;;;;;;3.92;2.13;;;6.20;99.90;;;;;;5061584;28;20558;-74
2022/05/02 00:53:12;;;;;;;8.82;2.90;;;6.10;99.90;;;;;;4994243;28;20072;-74
2022/05/02 00:55:38;;;;;;;5.15;2.30;;;6.10;99.90;;;;;;4994001;28;20467;-74
2022/05/02 00:58:04;;;;;;;6.95;2.50;;;6.10;99.90;;;;;;5061681;28;20121;-74
2022/05/02 01:00:32;;;;;;;7.20;3.15;;;6.00;99.90;;;;;;4994138;28;20475;-74
2022/05/02 01:02:58;;;;;;;5.72;2.63;;;6.00;99.90;;;;;;4994052;28;20487;-74
2022/05/02 01:05:24;;;;;;;6.32;2.83;;;6.00;99.90;;;;;;5061045;28;20022;-74
2022/05/02 01:07:50;;;;;;;4.70;2.63;;;5.90;99.90;;;;;;4993921;28;20101;-74
2022/05/02 01:10:18;;;;;;;6.20;3.03;;;5.90;99.90;;;;;;4994017;28;20030;-74
2022/05/02 01:12:46;;;;;;;5.90;2.45;;;5.90;99.90;;;;;;4993823;28;20031;-74
2022/05/02 01:15:12;;;;;;;4.75;2.60;;;5.90;99.90;;;;;;5060967;28;20038;-74
2022/05/02 01:17:38;;;;;;;6.05;2.70;;;5.90;99.90;;;;;;5060826;28;20534;-74
2022/05/02 01:20:08;;;;;;;10.98;2.53;;;5.80;99.90;;;;;;4993758;28;20030;-74
2022/05/02 01:22:34;;;;;;;6.95;2.90;;;5.80;99.90;;;;;;5061055;28;20088;-74
2022/05/02 01:25:00;;;;;;;5.80;2.90;;;5.80;99.90;;;;;;5060890;28;20429;-74
2022/05/02 01:27:25;;;;;;;4.85;2.15;;;5.70;99.90;;;;;;5060751;28;20084;-75
2022/05/02 01:29:51;;;;;;;4.93;2.22;;;5.70;99.90;;;;;;4993255;28;20041;-75
2022/05/02 01:32:17;;;;;;;4.93;2.58;;;5.70;99.90;;;;;;5060715;28;20022;-75
2022/05/02 01:34:43;;;;;;;3.03;1.98;;;5.70;99.90;;;;;;4993308;28;20479;-74
2022/05/02 01:37:10;;;;;;;4.75;2.85;;;5.60;99.90;;;;;;5060598;28;20109;-75
2022/05/02 01:39:37;;;;;;;4.82;1.98;;;5.60;99.90;;;;;;4993861;28;20107;-75
2022/05/02 01:42:05;;;;;;;5.72;2.67;;;5.50;99.90;;;;;;5060677;28;20023;-75
2022/05/02 01:44:31;;;;;;;3.97;2.35;;;5.50;99.90;;;;;;4993263;28;20035;-74
2022/05/02 01:46:57;;;;;;;8.05;3.10;;;5.50;99.90;;;;;;5060229;28;20061;-75
2022/05/02 01:49:23;;;;;;;6.97;2.30;;;5.40;99.90;;;;;;4993123;28;20038;-75
2022/05/02 01:51:49;;;;;;;4.50;2.42;;;5.40;99.90;;;;;;5060574;28;20115;-75
2022/05/02 01:54:16;;;;;;;5.65;2.78;;;5.40;99.90;;;;;;4993104;28;20053;-75
2022/05/02 01:56:41;;;;;;;8.43;3.00;;;5.30;99.90;;;;;;5059944;28;20043;-75
2022/05/02 01:59:07;;;;;;;6.95;3.35;;;5.30;99.90;;;;;;4992817;28;20041;-74
2022/05/02 02:01:33;;;;;;;7.50;2.90;;;5.30;99.90;;;;;;4992856;28;20026;-75
2022/05/02 02:06:52;;;;;;;6.53;2.40;;;5.20;99.90;;;;;;5011520;28;20022;-75
2022/05/02 02:09:18;;;;;;;7.03;2.75;;;5.20;99.90;;;;;;4992738;28;20034;-75
2022/05/02 02:11:47;;;;;;;6.80;2.78;;;5.20;99.90;;;;;;4995736;28;20030;-76
2022/05/02 02:14:13;;;;;;;5.72;2.58;;;5.10;99.90;;;;;;5060672;28;20042;-76
2022/05/02 02:16:38;;;;;;;6.70;3.05;;;5.10;99.90;;;;;;4992524;28;20035;-77
2022/05/02 02:19:04;;;;;;;7.35;3.10;;;5.10;99.90;;;;;;5060055;28;20027;-76
2022/05/02 02:21:31;;;;;;;6.85;3.05;;;5.10;99.90;;;;;;4992625;28;20027;-76
2022/05/02 02:24:00;;;;;;;7.20;3.17;;;5.10;99.90;;;;;;4992818;28;20407;-77
2022/05/02 02:26:26;;;;;;;7.50;3.20;;;5.10;99.90;;;;;;5060340;28;20387;-77
2022/05/02 02:28:51;;;;;;;5.70;3.03;;;5.10;99.90;;;;;;4992747;28;20034;-76
2022/05/02 02:31:17;;;;;;;5.28;3.30;;;5.20;99.90;;;;;;4993151;28;20481;-76
2022/05/02 02:33:43;;;;;;;8.75;3.75;;;5.20;99.90;;;;;;4992544;28;20037;-76
2022/05/02 02:36:08;;;;;;;8.00;3.15;;;5.20;99.90;;;;;;5059435;28;20080;-76
2022/05/02 02:38:34;;;;;;;6.65;2.90;;;5.20;99.90;;;;;;5059688;28;20034;-76
2022/05/02 02:40:59;;;;;;;9.13;3.10;;;5.20;99.90;;;;;;4992410;28;20037;-76
2022/05/02 02:43:25;;;;;;;6.88;3.22;;;5.20;99.90;;;;;;5059498;28;20030;-75
2022/05/02 02:45:50;;;;;;;7.65;3.17;;;5.10;99.90;;;;;;5059494;28;20034;-75
2022/05/02 02:48:16;;;;;;;5.95;2.85;;;5.10;99.90;;;;;;5060308;28;20026;-75
2022/05/02 02:50:41;;;;;;;5.38;2.72;;;5.10;99.90;;;;;;4992169;28;20483;-75
2022/05/02 02:53:07;;;;;;;6.78;3.35;;;5.10;99.90;;;;;;4992105;28;20069;-75
2022/05/02 02:55:33;;;;;;;7.70;3.20;;;5.10;99.90;;;;;;5058875;28;20042;-75
2022/05/02 02:57:58;;;;;;;6.78;3.22;;;5.10;99.90;;;;;;4991753;28;20054;-75
2022/05/02 03:00:24;;;;;;;8.70;3.00;;;5.10;99.90;;;;;;4991982;28;20120;-75
2022/05/02 03:02:51;;;;;;;7.30;3.72;;;5.10;99.90;;;;;;5059675;28;20372;-75
2022/05/02 03:08:02;;;;;;;5.85;3.55;;;5.10;99.90;;;;;;4992710;28;20053;-76
2022/05/02 03:10:28;;;;;;;9.63;3.15;;;5.00;99.90;;;;;;5059147;28;20556;-75
2022/05/02 03:12:54;;;;;;;7.85;3.20;;;5.00;99.90;;;;;;5059114;28;20026;-75
2022/05/02 03:15:20;;;;;;;8.55;3.35;;;5.00;99.90;;;;;;4992209;28;20035;-75
2022/05/02 03:17:46;;;;;;;8.93;3.97;;;5.00;99.90;;;;;;5058933;28;20031;-75
2022/05/02 03:20:12;;;;;;;7.70;3.53;;;4.90;99.90;;;;;;5059117;28;20056;-75
2022/05/02 03:22:38;;;;;;;7.18;3.45;;;4.90;99.90;;;;;;5058832;28;20038;-75
2022/05/02 03:25:04;;;;;;;6.35;3.28;;;4.80;99.90;;;;;;4991703;28;20034;-75
2022/05/02 03:27:30;;;;;;;6.13;3.03;;;4.80;99.90;;;;;;4991607;28;20109;-75
2022/05/02 03:29:55;;;;;;;8.32;3.47;;;4.80;99.90;;;;;;4991845;28;20455;-75
2022/05/02 03:32:21;;;;;;;6.18;2.88;;;4.70;99.90;;;;;;5059048;28;20057;-75
2022/05/02 03:34:46;;;;;;;7.45;2.75;;;4.60;99.90;;;;;;5058654;28;20024;-75
2022/05/02 03:37:12;;;;;;;5.28;2.80;;;4.60;99.90;;;;;;4991541;28;20500;-75
2022/05/02 03:39:37;;;;;;;6.50;3.47;;;4.60;99.90;;;;;;4991658;28;20493;-75
2022/05/02 03:42:03;;;;;;;5.38;3.15;;;4.60;99.90;;;;;;4991419;28;20041;-75
2022/05/02 03:44:29;;;;;;;5.82;2.78;;;4.50;99.90;;;;;;5058594;28;20035;-75
2022/05/02 03:46:54;;;;;;;6.93;2.30;;;4.50;99.90;;;;;;5058346;28;20027;-75
2022/05/02 03:49:20;;;;;;;6.85;3.00;;;4.40;99.90;;;;;;5058323;28;20035;-75
2022/05/02 03:51:45;;;;;;;7.53;2.90;;;4.40;99.90;;;;;;5058350;28;20027;-75
2022/05/02 03:54:11;;;;;;;7.53;3.20;;;4.40;99.90;;;;;;4991568;28;20066;-75
2022/05/02 03:56:36;;;;;;;8.00;3.13;;;4.30;99.90;;;;;;5058424;28;20438;-75
2022/05/02 03:59:03;;;;;;;6.50;2.35;;;4.30;99.90;;;;;;4991202;28;20031;-75
2022/05/02 04:01:28;;;;;;;5.60;3.15;;;4.20;99.90;;;;;;5058684;28;20034;-75
2022/05/02 04:03:54;;;;;;;5.13;2.80;;;4.20;99.90;;;;;;4991322;28;20505;-75
2022/05/02 04:06:20;;;;;;;5.32;2.83;;;4.20;99.90;;;;;;4991433;28;20057;-75
2022/05/02 04:08:46;;;;;;;7.70;3.15;;;4.10;99.90;;;;;;4992504;28;20033;-75
2022/05/02 04:11:11;;;;;;;6.00;2.85;;;4.10;99.90;;;;;;4994713;28;20038;-75
2022/05/02 04:13:37;;;;;;;6.95;3.13;;;4.00;99.90;;;;;;5062364;28;20031;-75
2022/05/02 04:16:03;;;;;;;7.03;2.80;;;4.00;99.90;;;;;;4994915;28;20399;-75
2022/05/02 04:18:29;;;;;;;6.15;3.20;;;4.00;99.90;;;;;;5062157;28;20034;-75
2022/05/02 04:20:54;;;;;;;6.47;3.53;;;4.00;99.90;;;;;;4994485;28;20519;-75
2022/05/02 04:23:20;;;;;;;6.90;3.00;;;3.90;99.90;;;;;;4994468;28;20054;-75
2022/05/02 04:25:45;;;;;;;5.22;2.85;;;3.90;99.90;;;;;;4994468;28;20045;-75
2022/05/02 04:28:12;;;;;;;6.50;2.85;;;3.90;99.90;;;;;;4994400;28;20043;-75
2022/05/02 04:30:39;;;;;;;7.80;2.78;;;3.90;99.90;;;;;;5061845;28;20076;-75
2022/05/02 04:33:05;;;;;;;5.35;2.83;;;3.80;99.90;;;;;;4995598;28;20031;-75
2022/05/02 04:35:31;;;;;;;8.02;3.08;;;4.00;99.90;;;;;;5062178;28;20513;-76
2022/05/02 04:37:58;;;;;;;6.45;2.60;;;4.00;99.90;;;;;;4994024;28;20109;-76
2022/05/02 04:40:24;;;;;;;5.70;3.15;;;4.00;99.90;;;;;;4994075;28;20030;-75
2022/05/02 04:42:50;;;;;;;8.40;4.10;;;4.00;99.90;;;;;;5061943;28;20514;-75
2022/05/02 04:45:15;;;;;;;8.15;3.47;;;4.10;99.90;;;;;;5061386;28;20031;-76
2022/05/02 04:47:41;;;;;;;9.85;3.10;;;4.10;99.90;;;;;;5061477;28;20160;-76
2022/05/02 04:50:07;;;;;;;6.82;3.17;;;4.20;99.90;;;;;;5061303;28;20038;-75
2022/05/02 04:52:32;;;;;;;9.20;3.45;;;4.20;99.90;;;;;;5061674;28;20099;-75
2022/05/02 04:54:58;;;;;;;6.38;3.33;;;4.30;99.90;;;;;;4994261;28;20085;-76
2022/05/02 04:57:24;;;;;;;8.23;3.67;;;4.40;99.90;;;;;;4995102;28;20047;-76
2022/05/02 04:59:49;;;;;;;6.90;3.20;;;4.50;99.90;;;;;;4993757;28;20434;-76
2022/05/02 05:02:15;;;;;;;6.47;3.25;;;4.50;99.90;;;;;;4994368;28;20035;-76
2022/05/02 05:04:41;;;;;;;6.07;3.08;;;4.60;99.90;;;;;;4994271;28;20095;-75
2022/05/02 05:07:07;;;;;;;8.35;4.13;;;4.70;99.90;;;;;;4993894;28;20109;-75
2022/05/02 05:09:32;;;;;;;7.55;3.60;;;4.80;99.90;;;;;;4993489;28;20084;-75
2022/05/02 05:12:13;;;;;;;7.57;3.60;;;4.80;99.90;;;;;;5061557;28;20046;-75
2022/05/02 05:18:14;;;;;;;13.02;3.58;;;5.10;99.90;;;;;;4993890;28;20502;-75
2022/05/02 05:20:56;;;;;;;7.05;3.95;;;5.20;99.90;;;;;;5060867;28;20034;-75
2022/05/02 05:24:04;;;;;;;10.68;4.68;;;5.30;99.90;;;;;;5061037;28;20617;-75
2022/05/02 05:27:01;;;;;;;7.40;3.15;;;5.40;99.90;;;;;;5037757;28;20043;-75
2022/05/02 05:29:41;;;;;;;12.07;3.75;;;5.60;99.90;;;;;;4993390;28;20034;-76
2022/05/02 05:32:19;;;;;;;7.68;4.22;;;5.70;99.90;;;;;;5060933;28;20034;-76
2022/05/02 05:34:48;;;;;;;9.15;4.13;;;5.80;99.90;;;;;;4993365;28;20042;-76
2022/05/02 05:37:39;;;;;;;7.22;4.00;;;6.00;99.90;;;;;;4993605;28;20030;-76
2022/05/02 05:40:25;;;;;;;6.90;3.78;;;6.20;99.90;;;;;;4993526;28;20518;-75
2022/05/02 05:42:53;;;;;;;8.52;3.67;;;6.30;99.90;;;;;;4993120;28;20114;-76
2022/05/02 05:45:46;;;;;;;9.05;4.47;;;6.40;99.90;;;;;;5060660;28;20045;-75
2022/05/02 05:48:49;;;;;;;7.82;4.32;;;6.60;99.90;;;;;;4993254;28;20034;-76
2022/05/02 05:51:43;;;;;;;11.68;4.18;;;6.80;99.90;;;;;;4993651;28;20045;-76
2022/05/02 05:54:21;;;;;;;7.55;3.83;;;7.00;99.90;;;;;;4997425;28;20058;-76
2022/05/02 05:57:11;;;;;;;9.52;4.63;;;7.10;99.90;;;;;;5060205;28;20538;-75
2022/05/02 06:00:11;;;;;;;7.82;4.55;;;7.30;99.90;;;;;;5060217;28;20034;-76
2022/05/02 06:02:55;;;;;;;10.18;4.50;;;7.40;99.90;;;;;;4993261;28;20438;-75
2022/05/02 06:05:21;;;;;;;11.93;4.72;;;7.60;99.90;;;;;;5060339;28;20550;-75
2022/05/02 06:07:47;;;;;;;6.63;4.32;;;7.80;99.90;;;;;;4993004;28;20067;-76
2022/05/02 06:10:16;;;;;;;8.40;4.07;;;7.90;99.90;;;;;;4993217;28;20084;-76
2022/05/02 06:12:43;;;;;;;8.43;4.32;;;8.10;99.90;;;;;;5061018;28;20030;-76
2022/05/02 06:20:43;;;;;;;10.88;4.80;;;8.60;99.90;;;;;;4993526;28;20060;-75
2022/05/02 06:23:13;;;;;;;7.75;4.07;;;8.70;99.90;;;;;;4992934;28;20034;-75
2022/05/02 06:25:39;;;;;;;10.55;4.43;;;8.90;99.90;;;;;;4992898;28;20030;-76
2022/05/02 06:28:07;;;;;;;15.18;4.93;;;9.00;99.90;;;;;;4992673;28;20125;-76
2022/05/02 06:30:35;;;;;;;10.65;4.68;;;9.20;99.90;;;;;;4992298;28;20033;-76
2022/05/02 06:33:08;;;;;;;10.77;5.10;;;9.30;99.90;;;;;;4991413;28;20065;-76
2022/05/02 06:35:47;;;;;;;8.70;4.72;;;9.50;99.90;;;;;;5059428;28;20103;-76
2022/05/02 06:38:31;;;;;;;8.05;4.10;;;9.70;99.90;;;;;;4993302;28;20422;-76
2022/05/02 06:41:30;;;;;;;7.60;4.50;;;9.90;99.90;;;;;;4992417;28;20478;-77
2022/05/02 06:44:09;;;;;;;;;;;10.10;99.90;;;;;;4992522;28;20066;-76
2022/05/02 06:46:44;;;;;;;30.52;4.30;;;10.30;99.90;;;;;;4992182;28;19906;-76
2022/05/02 06:49:12;;;;;;;10.52;4.53;;;10.40;99.90;;;;;;5058987;28;20048;-76
2022/05/02 06:51:48;;;;;;;7.30;3.80;;;10.60;99.90;;;;;;5058954;28;20045;-76
2022/05/02 06:54:44;;;;;;;8.63;4.05;;;10.80;99.90;;;;;;5058986;28;20041;-76
2022/05/02 06:57:41;;;;;;;6.47;3.70;;;11.00;99.90;;;;;;4991851;28;20518;-76
2022/05/02 07:00:15;;;;;;;9.18;3.97;;;11.10;99.90;;;;;;5058930;28;20045;-77
2022/05/02 07:03:18;;;;;;;8.90;4.22;;;11.30;99.90;;;;;;4991982;28;20542;-77
2022/05/02 07:06:05;;;;;;;7.95;4.22;;;11.40;99.90;;;;;;5005641;28;20039;-76
2022/05/02 07:08:38;;;;;;;7.32;4.18;;;11.60;99.90;;;;;;4992214;28;20049;-76
2022/05/02 07:11:06;;;;;;;10.10;3.80;;;11.80;99.90;;;;;;4991410;28;20069;-76
2022/05/02 07:13:56;;;;;;;10.85;3.92;;;11.90;99.90;;;;;;4992349;28;20379;-77
2022/05/02 07:16:24;;;;;;;6.50;3.35;;;12.10;99.90;;;;;;4991529;28;20030;-76
2022/05/02 07:19:02;;;;;;;8.23;3.78;;;12.20;99.90;;;;;;4992008;28;20114;-76
2022/05/02 07:21:40;;;;;;;7.88;3.72;;;12.40;99.90;;;;;;4991647;28;20069;-76
2022/05/02 07:24:27;;;;;;;11.15;4.13;;;12.60;99.90;;;;;;4991761;28;20069;-76
2022/05/02 07:27:19;;;;;;;8.45;3.40;;;12.70;99.90;;;;;;5058208;28;20038;-76
2022/05/02 07:29:47;;;;;;;7.45;3.22;;;12.80;99.90;;;;;;4991285;28;20038;-76
2022/05/02 07:32:14;;;;;;;7.97;3.25;;;12.90;99.90;;;;;;4991227;28;20030;-76
2022/05/02 07:34:41;;;;;;;7.00;3.80;;;13.00;99.90;;;;;;4991283;28;20038;-76
2022/05/02 07:37:08;;;;;;;6.43;3.10;;;13.20;99.90;;;;;;5058215;28;20034;-76
2022/05/02 07:39:38;;;;;;;13.18;3.80;;;13.20;99.90;;;;;;4991447;28;20030;-76
2022/05/02 07:42:05;;;;;;;11.38;4.15;;;13.40;99.90;;;;;;5058192;28;20070;-74
2022/05/02 07:44:34;;;;;;;8.27;3.33;;;13.60;96.60;;;;;;4990859;28;20419;-75
2022/05/02 07:47:02;;;;;;;10.40;4.03;;;13.60;96.80;;;;;;4991571;28;20026;-75
2022/05/02 07:49:28;;;;;;;6.72;2.95;;;13.70;98.20;;;;;;5058048;28;20023;-75
2022/05/02 07:51:56;;;;;;;8.10;3.53;;;13.80;97.20;;;;;;4990966;28;20038;-75
2022/05/02 07:54:27;;;;;;;7.70;3.50;;;13.90;97.30;;;;;;5074410;28;20048;-75
2022/05/02 07:56:57;;;;;;;5.32;2.58;;;14.10;96.50;;;;;;5058047;28;20039;-75
2022/05/02 07:59:26;;;;;;;6.13;2.90;;;14.20;94.60;;;;;;4990931;28;20398;-75
2022/05/02 08:01:52;;;;;;;;;;;14.50;93.00;;;;;;4991124;28;20031;-75
2022/05/02 08:04:18;;;;;;;7.20;2.97;;;14.50;87.50;;;;;;4990753;28;19906;-75
2022/05/02 08:07:09;;;;;;;4.28;2.28;;;14.60;87.70;;;;;;4991209;28;20054;-75
2022/05/02 08:09:34;;;;;;;8.30;3.17;;;14.80;92.30;;;;;;5074970;28;20426;-75
2022/05/02 08:12:19;;;;;;;5.00;2.90;;;15.00;87.30;;;;;;4990758;28;20037;-75
2022/05/02 08:15:21;;;;;;;10.15;2.75;;;15.00;85.00;;;;;;4990876;28;20092;-75
2022/05/02 08:18:11;;;;;;;3.42;1.88;;;15.00;80.40;;;;;;4990747;28;20060;-75
2022/05/02 08:20:47;;;;;;;6.85;3.25;;;15.00;79.90;;;;;;4991289;28;20037;-76
2022/05/02 08:30:03;;;;;;;6.07;2.55;;;15.20;76.80;;;;;;4991369;28;20045;-75
2022/05/02 08:32:52;;;;;;;6.07;1.70;;;15.40;77.40;;;;;;4990615;28;20506;-75
2022/05/02 08:35:27;;;;;;;5.20;2.00;;;15.50;76.10;;;;;;4991051;28;20113;-75
2022/05/02 08:38:07;;;;;;;4.93;1.90;;;15.60;73.90;;;;;;4990517;28;20026;-75
2022/05/02 08:40:51;;;;;;;4.55;1.80;;;15.70;71.70;;;;;;4990447;28;20113;-75
2022/05/02 08:43:53;;;;;;;3.72;1.58;;;15.80;72.20;;;;;;5074663;28;20035;-75
2022/05/02 08:46:41;;;;;;;2.80;1.40;;;15.90;69.50;;;;;;4990391;28;20042;-75
2022/05/02 08:49:40;;;;;;;4.15;1.92;;;16.00;66.80;;;;;;4990962;28;20045;-76
2022/05/02 08:52:20;;;;;;;5.55;1.58;;;16.00;65.40;;;;;;5074529;28;20034;-75
2022/05/02 08:55:10;;;;;;;4.82;1.73;;;16.00;66.60;;;;;;4990903;28;20484;-75
2022/05/02 08:57:53;;;;;;;2.40;1.38;;;16.10;66.80;;;;;;4993325;22;20069;-75
2022/05/02 09:00:40;;;;;;;2.97;1.42;;;16.20;66.90;;;;;;4973934;28;20042;-75
2022/05/02 09:03:18;;;;;;;2.13;1.02;;;16.30;62.70;;;;;;4973897;28;20038;-75
2022/05/02 09:06:18;;;;;;;3.00;1.00;;;16.40;61.40;;;;;;5013509;28;20033;-75
2022/05/02 09:09:23;;;;;;;5.00;0.45;;;16.40;61.20;;;;;;5076113;28;20040;-75
2022/05/02 09:12:27;;;;;;;4.45;0.98;;;16.50;60.60;;;;;;5076434;28;20043;-75
2022/05/02 09:15:04;;;;;;;2.45;1.50;;;16.60;59.80;;;;;;4997733;28;20073;-75
2022/05/02 09:18:03;;;;;;;5.22;1.33;;;16.70;59.40;;;;;;5067985;28;20044;-75
2022/05/02 09:20:50;;;;;;;3.05;1.50;;;16.70;58.80;;;;;;5074506;28;20131;-74
2022/05/02 09:23:33;;;;;;;4.63;1.27;;;16.80;61.70;;;;;;5074364;28;20047;-75
2022/05/02 09:26:04;;;;;;;3.97;1.70;;;16.90;59.10;;;;;;5074283;28;20120;-75
2022/05/02 09:28:38;;;;;;;2.15;0.65;;;16.90;57.80;;;;;;5075563;28;20519;-75
2022/05/02 09:31:17;;;;;;;2.65;1.00;;;16.90;59.40;;;;;;5075663;28;20500;-75
2022/05/02 09:34:06;;;;;;;3.47;1.23;;;17.00;57.80;;;;;;5075597;28;20044;-75
2022/05/02 09:36:56;;;;;;;4.13;1.02;;;17.10;58.50;;;;;;5075320;28;20082;-75
2022/05/02 09:39:48;;;;;;;4.43;1.73;;;17.20;57.20;;;;;;5074071;28;20040;-75
2022/05/02 09:42:33;;;;;;;2.38;1.35;;;17.30;57.40;;;;;;5075592;28;20036;-75
2022/05/02 09:51:50;;;;;;;2.00;1.00;;;17.60;54.60;;;;;;5058975;28;20065;-74
2022/05/02 09:56:37;;;;;;;1.83;1.00;;;17.70;55.30;;;;;;5072180;28;20037;-74
2022/05/02 09:57:12;;;;;;;;;;;17.70;55.80;;;;;;5075010;28;20048;-74
2022/05/02 10:01:06;;;;;;;2.83;1.05;;;17.50;55.20;;;;;;5075275;28;19905;-74
2022/05/02 10:02:46;;;;;;;2.10;0.98;;;17.70;54.50;;;;;;5074736;28;20090;-73
2022/05/02 10:05:26;;;;;;;2.80;0.50;;;17.70;53.30;;;;;;5075056;28;20158;-73
2022/05/02 10:07:54;;;;;;;2.47;0.60;;;17.60;55.30;;;;;;5074540;28;20036;-73
2022/05/02 10:10:34;;;;;;;1.50;0.90;;;17.80;55.30;;;;;;5073412;28;20493;-73
2022/05/02 10:13:39;;;;;;;1.92;0.55;;;18.00;54.40;;;;;;5074998;28;20025;-73
2022/05/02 10:16:23;;;;;;;3.30;0.82;;;18.20;52.90;;;;;;5042804;28;20025;-74
2022/05/02 10:19:12;;;;;;;2.63;0.93;;;18.40;54.10;;;;;;5074760;28;20036;-73
2022/05/02 10:21:42;;;;;;;;;;;18.50;52.30;;;;;;5066674;28;20444;-73
2022/05/02 10:24:15;;;;;;;2.05;0.90;;;18.70;52.10;;;;;;5073118;28;20281;-73
2022/05/02 10:26:54;;;;;;;1.48;0.38;;;18.80;53.50;;;;;;5073150;28;20043;-73
2022/05/02 10:29:54;;;;;;;1.73;0.95;;;18.80;52.00;;;;;;5074953;28;20035;-73
2022/05/02 10:32:46;;;;;;;2.50;0.75;;;18.80;51.20;;;;;;5074141;28;20037;-73
2022/05/02 10:35:14;;;;;;;1.02;0.65;;;18.90;51.30;;;;;;5074174;28;20036;-74
2022/05/02 10:37:42;;;;;;;4.20;1.10;;;18.90;50.70;;;;;;5074019;28;20021;-73
2022/05/02 10:40:10;;;;;;;3.33;1.02;;;19.10;53.20;;;;;;5072707;28;20580;-73
2022/05/02 10:42:43;;;;;;;1.95;1.35;;;18.90;51.80;;;;;;5072951;28;20032;-74
2022/05/02 10:45:10;;;;;;;2.60;0.75;;;19.00;53.00;;;;;;5073919;28;20538;-73
2022/05/02 10:47:55;;;;;;;4.50;1.00;;;18.80;50.30;;;;;;5073929;28;20039;-72
2022/05/02 10:50:41;;;;;;;3.45;1.17;;;18.70;51.10;;;;;;5074151;28;20028;-72
2022/05/02 10:53:50;;;;;;;3.42;1.60;;;18.90;51.70;;;;;;5073414;28;20036;-72
2022/05/02 10:56:19;;;;;;;1.45;0.80;;;19.10;52.00;;;;;;5073784;28;20390;-72
2022/05/02 10:58:46;;;;;;;1.85;0.73;;;19.50;51.10;;;;;;5073881;28;20060;-72
2022/05/02 11:01:56;;;;;;;3.28;0.95;;;19.60;48.40;;;;;;5073816;28;20032;-73
2022/05/02 11:04:48;;;;;;;3.90;0.73;;;19.90;50.10;;;;;;5058078;28;20044;-72
2022/05/02 11:07:29;;;;;;;2.00;0.90;;;20.10;48.40;;;;;;5072532;28;20039;-72
2022/05/02 11:10:10;;;;;;;1.15;0.60;;;20.50;52.50;;;;;;5074184;28;20064;-72
2022/05/02 11:12:42;;;;;;;0.80;0.50;;;20.80;49.00;;;;;;5072409;28;20388;-72
2022/05/02 11:15:11;;;;;;;2.55;0.75;;;21.20;49.40;;;;;;5072380;28;20028;-72
2022/05/02 11:17:53;;;;;;;3.13;0.82;;;21.40;46.80;;;;;;5073303;28;20033;-72
2022/05/02 11:20:43;;;;;;;1.75;0.70;;;21.50;46.30;;;;;;5072266;28;20043;-72
2022/05/02 11:23:17;;;;;;;2.58;0.68;;;21.50;43.40;;;;;;5072261;28;20043;-72
2022/05/02 11:26:09;;;;;;;2.60;0.90;;;21.10;45.70;;;;;;5073421;28;20409;-72
2022/05/02 11:28:41;;;;;;;4.72;1.08;;;21.30;45.70;;;;;;5073582;28;20478;-72
2022/05/02 11:31:21;;;;;;;1.50;0.52;;;21.40;44.10;;;;;;5073522;28;20032;-72
2022/05/02 11:34:03;;;;;;;4.53;0.98;;;21.40;44.80;;;;;;5072036;28;20044;-72
2022/05/02 11:36:31;;;;;;;3.45;0.80;;;21.60;45.60;;;;;;5073336;28;20039;-72
2022/05/02 11:39:09;;;;;;;2.88;0.68;;;21.90;44.80;;;;;;5073897;28;20064;-72
2022/05/02 11:41:43;;;;;;;1.88;0.28;;;21.90;42.80;;;;;;5073253;28;20058;-72
2022/05/02 11:44:12;;;;;;;1.05;0.52;;;21.90;43.60;;;;;;5072040;28;20051;-72
2022/05/02 11:47:15;;;;;;;1.98;0.28;;;22.10;41.20;;;;;;5073174;28;20040;-72
2022/05/02 11:49:51;;;;;;;0.82;0.17;;;21.70;41.20;;;;;;5073666;28;20073;-72
2022/05/02 11:52:29;;;;;;;1.27;0.40;;;21.70;41.90;;;;;;5073098;28;20032;-73
2022/05/02 11:54:57;;;;;;;2.35;0.30;;;21.50;40.50;;;;;;5071907;28;20124;-72
2022/05/02 11:57:29;;;;;;;5.32;0.65;;;21.20;40.80;;;;;;5072979;28;20040;-72
2022/05/02 12:00:05;;;;;;;0.68;0.30;;;21.10;41.50;;;;;;5073457;28;20028;-71
2022/05/02 12:02:36;;;;;;;2.65;0.20;;;21.20;44.00;;;;;;5073062;28;20037;-71
2022/05/02 12:05:06;;;;;;;2.13;0.75;;;21.30;43.10;;;;;;5073283;28;20044;-72
2022/05/02 12:07:33;;;;;;;2.75;0.70;;;21.30;42.60;;;;;;5073036;28;20116;-71
2022/05/02 12:10:03;;;;;;;1.50;0.70;;;21.10;44.00;;;;;;5072917;28;20393;-72
2022/05/02 12:12:31;;;;;;;3.00;0.90;;;21.20;43.90;;;;;;5071622;28;20156;-71
2022/05/02 12:15:13;;;;;;;3.53;0.73;;;21.10;44.20;;;;;;5071624;28;20032;-71
2022/05/02 12:18:01;;;;;;;1.58;0.60;;;20.90;44.70;;;;;;5072825;28;20255;-71
2022/05/02 12:20:38;;;;;;;2.53;0.98;;;20.90;45.20;;;;;;5071539;28;20028;-73
2022/05/02 12:23:18;;;;;;;3.38;1.42;;;20.90;46.10;;;;;;5072822;28;20035;-72
2022/05/02 12:25:54;;;;;;;4.88;1.98;;;20.60;49.30;;;;;;5072649;28;20036;-72
2022/05/02 12:28:47;;;;;;;1.52;1.20;;;20.50;50.50;;;;;;5072841;28;20560;-72
2022/05/02 12:31:16;;;;;;;4.18;1.33;;;20.80;49.40;;;;;;5076124;28;20044;-72
2022/05/02 12:33:46;;;;;;;;;;;21.30;46.30;;;;;;5076907;28;20060;-72
2022/05/02 12:36:14;;;;;;;2.85;1.17;;;21.70;46.20;;;;;;5075098;28;20384;-75
2022/05/02 12:38:43;;;;;;;4.93;1.48;;;21.80;44.90;;;;;;5075115;28;20482;-75
2022/05/02 12:41:11;;;;;;;4.57;2.10;;;22.50;45.60;;;;;;5076285;28;20036;-74
2022/05/02 12:43:44;;;;;;;4.20;1.58;;;23.00;45.50;;;;;;5076347;28;20032;-74
2022/05/02 12:46:12;;;;;;;2.90;0.93;;;23.30;43.20;;;;;;5076068;28;20028;-74
2022/05/02 12:48:41;;;;;;;3.13;1.58;;;23.80;44.40;;;;;;5075994;28;20031;-75
2022/05/02 12:51:14;;;;;;;3.72;1.58;;;24.00;43.80;;;;;;5074131;28;20475;-74
2022/05/02 12:56:24;;;;;;;2.13;1.30;;;23.90;41.60;;;;;;5074415;28;20527;-75
2022/05/02 13:01:50;;;;;;;2.30;0.82;;;23.90;42.40;;;;;;5074007;28;20130;-74
2022/05/02 13:04:18;;;;;;;3.25;1.33;;;23.90;42.10;;;;;;5074000;28;20142;-74
2022/05/02 13:06:45;;;;;;;2.67;0.95;;;23.40;40.40;;;;;;5074511;28;20036;-74
2022/05/02 13:09:12;;;;;;;8.40;1.98;;;22.60;42.80;;;;;;5075997;28;20052;-74
2022/05/02 13:11:38;;;;;;;4.45;1.15;;;22.10;45.80;;;;;;5075751;28;20025;-74
2022/05/02 13:14:05;;;;;;;2.28;0.77;;;22.20;47.40;;;;;;5075918;28;20032;-74
2022/05/02 13:16:39;;;;;;;1.80;1.08;;;22.60;46.10;;;;;;5075647;28;20035;-74
2022/05/02 13:19:06;;;;;;;4.55;1.38;;;23.00;42.70;;;;;;5075663;28;20040;-74
2022/05/02 13:21:32;;;;;;;3.17;0.70;;;23.10;42.90;;;;;;5074300;28;20029;-74
2022/05/02 13:24:12;;;;;;;3.15;0.60;;;23.10;44.50;;;;;;5074378;28;20025;-74
2022/05/02 13:26:54;;;;;;;1.83;1.10;;;23.10;44.60;;;;;;5074170;28;20040;-75
2022/05/02 13:29:40;;;;;;;4.38;1.02;;;23.40;45.30;;;;;;5075798;28;20083;-75
2022/05/02 13:32:14;;;;;;;1.95;0.73;;;23.80;44.40;;;;;;5075552;28;20038;-75
2022/05/02 13:34:51;;;;;;;2.33;0.52;;;24.10;44.30;;;;;;5075579;28;20401;-75
2022/05/02 13:37:28;;;;;;;2.60;0.90;;;24.20;42.60;;;;;;5074115;28;20024;-75
2022/05/02 13:40:02;;;;;;;1.70;0.80;;;24.10;41.40;;;;;;5075707;28;20039;-73
2022/05/02 13:42:35;;;;;;;2.88;0.68;;;23.90;41.20;;;;;;5074962;28;20036;-74
2022/05/02 13:45:04;;;;;;;5.88;1.15;;;23.90;42.80;;;;;;5075128;28;20033;-75
2022/05/02 13:48:22;;;;;;;2.03;1.00;;;23.90;44.10;;;;;;5073693;28;20064;-75
2022/05/02 13:50:52;;;;;;;2.75;0.98;;;23.90;41.00;;;;;;5012810;28;20444;-75
2022/05/02 13:53:28;;;;;;;4.00;0.80;;;24.30;42.60;;;;;;4996500;28;20030;-76
2022/05/02 13:55:57;;;;;;;4.63;0.80;;;24.20;43.60;;;;;;5047724;28;20497;-76
2022/05/02 13:58:47;;;;;;;1.85;0.70;;;24.70;42.70;;;;;;5074885;28;20036;-75
2022/05/02 14:01:57;;;;;;;3.65;0.82;;;25.00;41.70;;;;;;5074793;28;20118;-75